ISR63H LDZD-EDDB
Flight info
| Callsign | ISR63H |
|---|---|
| Flight time | 1h 22m |
| Altitude | 37000 |
| Route | PALEZ L862 GISER L868 KULEN DCT LOKVU DCT LEGAZ DCT BEFRE T204 NUKRO NUKRO1L |
| Aircraft | A320/M-SDE3FGHIRWY/LB1 |
Departure
| Time | 2026-05-04 16:17 |
|---|---|
| Airport | Zadar Airport (LDZD) |
Arrival
| Time | 2026-05-04 17:39 |
|---|---|
| Airport | Berlin Brandenburg Airport (EDDB) |
| Time | Latitude | Longitude | Altitude | Speed | Heading |
|---|---|---|---|---|---|
| 2026-05-04 15:45 | 44.09670 | 15.35431 | 270 ft | 0 kts | 323° |
| 2026-05-04 16:11 | 44.09713 | 15.35528 | 270 ft | 8 kts | 62° |
| 2026-05-04 16:11 | 44.09769 | 15.35539 | 270 ft | 9 kts | 359° |
| 2026-05-04 16:12 | 44.09994 | 15.35398 | 270 ft | 15 kts | 315° |
| 2026-05-04 16:12 | 44.10269 | 15.35026 | 270 ft | 22 kts | 316° |
| 2026-05-04 16:13 | 44.10506 | 15.34702 | 270 ft | 26 kts | 315° |
| 2026-05-04 16:13 | 44.10746 | 15.34382 | 270 ft | 24 kts | 316° |
| 2026-05-04 16:14 | 44.11004 | 15.34030 | 270 ft | 28 kts | 315° |
| 2026-05-04 16:14 | 44.11298 | 15.33631 | 269 ft | 29 kts | 315° |
| 2026-05-04 16:15 | 44.11577 | 15.33468 | 267 ft | 16 kts | 50° |
| 2026-05-04 16:16 | 44.11622 | 15.33604 | 259 ft | 0 kts | 137° |
| 2026-05-04 16:16 | 44.10505 | 15.35103 | 286 ft | 155 kts | 137° |
| 2026-05-04 16:17 | 44.08970 | 15.37108 | 1510 ft | 151 kts | 139° |
| 2026-05-04 16:18 | 44.06520 | 15.39935 | 2843 ft | 156 kts | 169° |
| 2026-05-04 16:18 | 44.05470 | 15.39869 | 3284 ft | 152 kts | 201° |
| 2026-05-04 16:19 | 44.04445 | 15.35430 | 3863 ft | 217 kts | 283° |
| 2026-05-04 16:19 | 44.05914 | 15.31363 | 4658 ft | 263 kts | 324° |
| 2026-05-04 16:20 | 44.11507 | 15.30401 | 7065 ft | 282 kts | 358° |
| 2026-05-04 16:20 | 44.15462 | 15.30222 | 8670 ft | 290 kts | 357° |
| 2026-05-04 16:21 | 44.21714 | 15.29939 | 10485 ft | 322 kts | 358° |
| 2026-05-04 16:22 | 44.26501 | 15.29732 | 10932 ft | 362 kts | 358° |
| 2026-05-04 16:22 | 44.34187 | 15.29426 | 12824 ft | 376 kts | 358° |
| 2026-05-04 16:23 | 44.42168 | 15.29106 | 14675 ft | 388 kts | 358° |
| 2026-05-04 16:24 | 44.53116 | 15.28666 | 16982 ft | 400 kts | 358° |
| 2026-05-04 16:25 | 44.58690 | 15.28441 | 18129 ft | 407 kts | 358° |
| 2026-05-04 16:26 | 44.70161 | 15.28051 | 20477 ft | 416 kts | 358° |
| 2026-05-04 16:26 | 44.78903 | 15.27662 | 22072 ft | 421 kts | 356° |
| 2026-05-04 16:27 | 44.84728 | 15.27397 | 23109 ft | 423 kts | 357° |
| 2026-05-04 16:28 | 44.93513 | 15.26245 | 24397 ft | 424 kts | 342° |
| 2026-05-04 16:28 | 45.01524 | 15.20834 | 25385 ft | 429 kts | 330° |
| 2026-05-04 16:29 | 45.12709 | 15.14851 | 26812 ft | 439 kts | 343° |
| 2026-05-04 16:30 | 45.21926 | 15.14301 | 27752 ft | 452 kts | 5° |
| 2026-05-04 16:31 | 45.28123 | 15.15408 | 28591 ft | 451 kts | 5° |
| 2026-05-04 16:31 | 45.37427 | 15.17058 | 29998 ft | 448 kts | 5° |
| 2026-05-04 16:32 | 45.46670 | 15.18701 | 31227 ft | 445 kts | 5° |
| 2026-05-04 16:33 | 45.52790 | 15.19798 | 32066 ft | 442 kts | 5° |
| 2026-05-04 16:33 | 45.58827 | 15.20874 | 32961 ft | 438 kts | 4° |
| 2026-05-04 16:34 | 45.64849 | 15.21945 | 33838 ft | 435 kts | 4° |
| 2026-05-04 16:34 | 45.67843 | 15.22481 | 34245 ft | 433 kts | 4° |
| 2026-05-04 16:35 | 45.76800 | 15.24107 | 35171 ft | 432 kts | 4° |
| 2026-05-04 16:35 | 45.85720 | 15.25719 | 36017 ft | 433 kts | 4° |
| 2026-05-04 16:36 | 45.88707 | 15.26253 | 36283 ft | 433 kts | 4° |
| 2026-05-04 16:36 | 45.94680 | 15.27336 | 36822 ft | 433 kts | 4° |
| 2026-05-04 16:37 | 46.00688 | 15.28431 | 37015 ft | 439 kts | 4° |
| 2026-05-04 16:37 | 46.03730 | 15.28986 | 37010 ft | 442 kts | 4° |
| 2026-05-04 16:38 | 46.15908 | 15.31198 | 37022 ft | 443 kts | 4° |
| 2026-05-04 16:39 | 46.31225 | 15.34014 | 37020 ft | 445 kts | 4° |
| 2026-05-04 16:40 | 46.43460 | 15.36271 | 37017 ft | 445 kts | 4° |
| 2026-05-04 16:41 | 46.58803 | 15.39107 | 37020 ft | 444 kts | 5° |
| 2026-05-04 16:43 | 46.74099 | 15.41959 | 37000 ft | 444 kts | 4° |
| 2026-05-04 16:43 | 46.83301 | 15.43682 | 36994 ft | 445 kts | 5° |
| 2026-05-04 16:45 | 47.01672 | 15.47142 | 36994 ft | 445 kts | 5° |
| 2026-05-04 16:46 | 47.17026 | 15.50037 | 37003 ft | 445 kts | 5° |
| 2026-05-04 16:47 | 47.29262 | 15.52364 | 37000 ft | 445 kts | 5° |
| 2026-05-04 16:48 | 47.41494 | 15.54703 | 37008 ft | 445 kts | 5° |
| 2026-05-04 16:49 | 47.53791 | 15.57070 | 36998 ft | 446 kts | 5° |
| 2026-05-04 16:50 | 47.66096 | 15.59447 | 37001 ft | 445 kts | 5° |
| 2026-05-04 16:51 | 47.75264 | 15.61223 | 36994 ft | 445 kts | 5° |
| 2026-05-04 16:52 | 47.87538 | 15.63614 | 36978 ft | 445 kts | 5° |
| 2026-05-04 16:53 | 47.96702 | 15.65405 | 36979 ft | 445 kts | 4° |
| 2026-05-04 16:54 | 48.08969 | 15.67805 | 36964 ft | 444 kts | 5° |
| 2026-05-04 16:55 | 48.27314 | 15.71442 | 36963 ft | 444 kts | 5° |
| 2026-05-04 16:56 | 48.42582 | 15.74470 | 36957 ft | 444 kts | 5° |
| 2026-05-04 16:57 | 48.51768 | 15.76297 | 36966 ft | 444 kts | 4° |
| 2026-05-04 16:58 | 48.64017 | 15.78749 | 36962 ft | 445 kts | 5° |
| 2026-05-04 17:00 | 48.82391 | 15.82470 | 36967 ft | 445 kts | 4° |
| 2026-05-04 17:00 | 48.91448 | 15.81267 | 36980 ft | 433 kts | 338° |
| 2026-05-04 17:01 | 48.97068 | 15.78133 | 36971 ft | 433 kts | 336° |
| 2026-05-04 17:02 | 49.08382 | 15.71806 | 36984 ft | 433 kts | 337° |
| 2026-05-04 17:03 | 49.16874 | 15.67038 | 36983 ft | 434 kts | 336° |
| 2026-05-04 17:03 | 49.25325 | 15.62265 | 36990 ft | 434 kts | 336° |
| 2026-05-04 17:04 | 49.36644 | 15.55850 | 36988 ft | 434 kts | 336° |
| 2026-05-04 17:05 | 49.47915 | 15.49421 | 36986 ft | 433 kts | 336° |
| 2026-05-04 17:06 | 49.56393 | 15.44560 | 36989 ft | 433 kts | 336° |
| 2026-05-04 17:07 | 49.62999 | 15.40763 | 36994 ft | 434 kts | 336° |
| 2026-05-04 17:07 | 49.70533 | 15.36436 | 36984 ft | 434 kts | 336° |
| 2026-05-04 17:08 | 49.78980 | 15.31556 | 36976 ft | 434 kts | 336° |
| 2026-05-04 17:09 | 49.84635 | 15.28266 | 36978 ft | 434 kts | 336° |
| 2026-05-04 17:09 | 49.90292 | 15.24979 | 36983 ft | 434 kts | 336° |
| 2026-05-04 17:10 | 50.04402 | 15.16735 | 36979 ft | 435 kts | 336° |
| 2026-05-04 17:11 | 50.10068 | 15.13417 | 36978 ft | 435 kts | 335° |
| 2026-05-04 17:12 | 50.18569 | 15.08411 | 36978 ft | 435 kts | 335° |
| 2026-05-04 17:13 | 50.32703 | 15.00070 | 36972 ft | 436 kts | 335° |
| 2026-05-04 17:14 | 50.43086 | 14.93887 | 36978 ft | 436 kts | 335° |
| 2026-05-04 17:15 | 50.52526 | 14.88231 | 36962 ft | 437 kts | 335° |
| 2026-05-04 17:16 | 50.62949 | 14.81989 | 36979 ft | 438 kts | 335° |
| 2026-05-04 17:17 | 50.74783 | 14.76929 | 36975 ft | 442 kts | 343° |
| 2026-05-04 17:18 | 50.86773 | 14.72515 | 36977 ft | 442 kts | 343° |
| 2026-05-04 17:19 | 50.98716 | 14.68010 | 36986 ft | 442 kts | 341° |
| 2026-05-04 17:20 | 51.10633 | 14.63147 | 36993 ft | 441 kts | 341° |
| 2026-05-04 17:20 | 51.19482 | 14.59566 | 36595 ft | 439 kts | 341° |
| 2026-05-04 17:21 | 51.25275 | 14.56570 | 35211 ft | 438 kts | 335° |
| 2026-05-04 17:21 | 51.30973 | 14.53191 | 33055 ft | 437 kts | 335° |
| 2026-05-04 17:22 | 51.34759 | 14.50905 | 31153 ft | 442 kts | 335° |
| 2026-05-04 17:22 | 51.36712 | 14.49727 | 30156 ft | 445 kts | 335° |
| 2026-05-04 17:23 | 51.45557 | 14.44435 | 26860 ft | 457 kts | 336° |
| 2026-05-04 17:23 | 51.48527 | 14.42685 | 26138 ft | 452 kts | 336° |
| 2026-05-04 17:23 | 51.54324 | 14.39261 | 24162 ft | 438 kts | 336° |
| 2026-05-04 17:24 | 51.57168 | 14.37565 | 23174 ft | 433 kts | 336° |
| 2026-05-04 17:24 | 51.65484 | 14.32568 | 20305 ft | 420 kts | 336° |
| 2026-05-04 17:25 | 51.68200 | 14.30931 | 19554 ft | 414 kts | 336° |
| 2026-05-04 17:25 | 51.73558 | 14.27703 | 17883 ft | 408 kts | 337° |
| 2026-05-04 17:26 | 51.78805 | 14.24532 | 16652 ft | 400 kts | 336° |
| 2026-05-04 17:26 | 51.86509 | 14.19864 | 14321 ft | 389 kts | 336° |
| 2026-05-04 17:27 | 51.91510 | 14.16830 | 13135 ft | 380 kts | 336° |
| 2026-05-04 17:27 | 51.96412 | 14.13845 | 11864 ft | 373 kts | 336° |
| 2026-05-04 17:28 | 52.01170 | 14.10946 | 10865 ft | 362 kts | 336° |
| 2026-05-04 17:29 | 52.07910 | 14.06838 | 10115 ft | 328 kts | 335° |
| 2026-05-04 17:29 | 52.13811 | 14.03222 | 9948 ft | 293 kts | 335° |
| 2026-05-04 17:30 | 52.19475 | 13.99710 | 9534 ft | 287 kts | 335° |
| 2026-05-04 17:31 | 52.23185 | 13.97416 | 8279 ft | 283 kts | 336° |
| 2026-05-04 17:31 | 52.28625 | 13.94055 | 6583 ft | 274 kts | 337° |
| 2026-05-04 17:32 | 52.32152 | 13.91874 | 5522 ft | 265 kts | 338° |
| 2026-05-04 17:33 | 52.36801 | 13.89000 | 4866 ft | 224 kts | 338° |
| 2026-05-04 17:33 | 52.38249 | 13.88095 | 4411 ft | 222 kts | 337° |
| 2026-05-04 17:34 | 52.41939 | 13.84196 | 3306 ft | 207 kts | 294° |
| 2026-05-04 17:34 | 52.42337 | 13.82008 | 3176 ft | 197 kts | 275° |
| 2026-05-04 17:35 | 52.41364 | 13.75810 | 2989 ft | 187 kts | 250° |
| 2026-05-04 17:35 | 52.40444 | 13.71873 | 2646 ft | 185 kts | 250° |
| 2026-05-04 17:35 | 52.39988 | 13.69928 | 2406 ft | 180 kts | 250° |
| 2026-05-04 17:36 | 52.39547 | 13.68050 | 2168 ft | 175 kts | 250° |
| 2026-05-04 17:36 | 52.39113 | 13.66202 | 1944 ft | 171 kts | 250° |
| 2026-05-04 17:36 | 52.38709 | 13.64481 | 1747 ft | 152 kts | 250° |
| 2026-05-04 17:36 | 52.38342 | 13.62922 | 1514 ft | 142 kts | 251° |
| 2026-05-04 17:37 | 52.37992 | 13.61437 | 1341 ft | 139 kts | 251° |
| 2026-05-04 17:37 | 52.37642 | 13.59958 | 1164 ft | 139 kts | 250° |
| 2026-05-04 17:37 | 52.37295 | 13.58480 | 972 ft | 139 kts | 249° |
| 2026-05-04 17:37 | 52.36950 | 13.57011 | 799 ft | 137 kts | 252° |
| 2026-05-04 17:38 | 52.36608 | 13.55563 | 617 ft | 140 kts | 251° |
| 2026-05-04 17:38 | 52.36258 | 13.54092 | 424 ft | 139 kts | 251° |
| 2026-05-04 17:38 | 52.35915 | 13.52629 | 241 ft | 137 kts | 251° |
| 2026-05-04 17:38 | 52.35574 | 13.51191 | 156 ft | 126 kts | 249° |
| 2026-05-04 17:39 | 52.35234 | 13.49699 | 154 ft | 25 kts | 263° |
| 2026-05-04 17:39 | 52.35237 | 13.49423 | 156 ft | 13 kts | 274° |
| 2026-05-04 17:39 | 52.35253 | 13.49285 | 154 ft | 14 kts | 289° |
| 2026-05-04 17:40 | 52.35338 | 13.49241 | 154 ft | 15 kts | 21° |
| 2026-05-04 17:40 | 52.35389 | 13.49394 | 154 ft | 17 kts | 74° |
| 2026-05-04 17:40 | 52.35432 | 13.49592 | 154 ft | 20 kts | 68° |
| 2026-05-04 17:40 | 52.35476 | 13.49773 | 154 ft | 15 kts | 69° |
| 2026-05-04 17:41 | 52.35517 | 13.49946 | 154 ft | 18 kts | 69° |
| 2026-05-04 17:41 | 52.35564 | 13.50141 | 154 ft | 19 kts | 68° |
| 2026-05-04 17:41 | 52.35617 | 13.50358 | 154 ft | 22 kts | 68° |
| 2026-05-04 17:41 | 52.35673 | 13.50605 | 154 ft | 24 kts | 69° |
| 2026-05-04 17:42 | 52.35715 | 13.50783 | 154 ft | 12 kts | 69° |
| 2026-05-04 17:42 | 52.35788 | 13.50815 | 154 ft | 14 kts | 340° |
| 2026-05-04 17:42 | 52.35885 | 13.50753 | 155 ft | 16 kts | 338° |
| 2026-05-04 17:42 | 52.35980 | 13.50693 | 155 ft | 9 kts | 338° |
| 2026-05-04 17:43 | 52.36034 | 13.50690 | 155 ft | 6 kts | 56° |
| 2026-05-04 17:43 | 52.36050 | 13.50765 | 155 ft | 6 kts | 70° |
| 2026-05-04 17:43 | 52.36058 | 13.50799 | 155 ft | 2 kts | 69° |
| 2026-05-04 17:43 | 52.36059 | 13.50801 | 155 ft | 0 kts | 69° |